sensor_id;sensor_type;location;lat;lon;timestamp;P1;durP1;ratioP1;P2;durP2;ratioP2
7231;SDS011;3657;49.630;11.018;2023-11-21T00:02:13;18.20;;;17.80;;
7231;SDS011;3657;49.630;11.018;2023-11-21T00:04:40;17.57;;;16.90;;
7231;SDS011;3657;49.630;11.018;2023-11-21T00:07:06;17.23;;;16.83;;
7231;SDS011;3657;49.630;11.018;2023-11-21T00:09:33;18.70;;;18.20;;
7231;SDS011;3657;49.630;11.018;2023-11-21T00:12:01;17.70;;;17.30;;
7231;SDS011;3657;49.630;11.018;2023-11-21T00:14:28;16.60;;;16.30;;
7231;SDS011;3657;49.630;11.018;2023-11-21T00:16:55;16.13;;;15.83;;
7231;SDS011;3657;49.630;11.018;2023-11-21T00:19:23;17.30;;;16.90;;
7231;SDS011;3657;49.630;11.018;2023-11-21T00:21:49;17.57;;;17.17;;
7231;SDS011;3657;49.630;11.018;2023-11-21T00:24:16;17.50;;;16.93;;
7231;SDS011;3657;49.630;11.018;2023-11-21T00:26:43;17.90;;;17.30;;
7231;SDS011;3657;49.630;11.018;2023-11-21T00:29:09;17.20;;;16.90;;
7231;SDS011;3657;49.630;11.018;2023-11-21T00:31:36;17.70;;;17.30;;
7231;SDS011;3657;49.630;11.018;2023-11-21T00:34:03;15.90;;;15.60;;
7231;SDS011;3657;49.630;11.018;2023-11-21T00:36:32;17.50;;;17.10;;
7231;SDS011;3657;49.630;11.018;2023-11-21T00:38:58;16.23;;;15.93;;
7231;SDS011;3657;49.630;11.018;2023-11-21T00:41:25;16.17;;;15.73;;
7231;SDS011;3657;49.630;11.018;2023-11-21T00:43:53;16.50;;;16.20;;
7231;SDS011;3657;49.630;11.018;2023-11-21T00:46:20;15.63;;;15.33;;
7231;SDS011;3657;49.630;11.018;2023-11-21T00:48:47;16.47;;;16.17;;
7231;SDS011;3657;49.630;11.018;2023-11-21T00:51:13;14.17;;;13.70;;
7231;SDS011;3657;49.630;11.018;2023-11-21T00:53:41;17.20;;;16.80;;
7231;SDS011;3657;49.630;11.018;2023-11-21T00:56:08;17.13;;;16.83;;
7231;SDS011;3657;49.630;11.018;2023-11-21T00:58:34;16.37;;;16.07;;
7231;SDS011;3657;49.630;11.018;2023-11-21T01:01:01;16.57;;;16.27;;
7231;SDS011;3657;49.630;11.018;2023-11-21T01:03:28;15.97;;;15.67;;
7231;SDS011;3657;49.630;11.018;2023-11-21T01:05:55;16.97;;;16.67;;
7231;SDS011;3657;49.630;11.018;2023-11-21T01:08:22;17.30;;;16.90;;
7231;SDS011;3657;49.630;11.018;2023-11-21T01:10:50;16.47;;;16.07;;
7231;SDS011;3657;49.630;11.018;2023-11-21T01:13:17;16.70;;;16.40;;
7231;SDS011;3657;49.630;11.018;2023-11-21T01:15:43;16.10;;;15.60;;
7231;SDS011;3657;49.630;11.018;2023-11-21T01:18:11;16.70;;;16.40;;
7231;SDS011;3657;49.630;11.018;2023-11-21T01:20:38;17.13;;;16.80;;
7231;SDS011;3657;49.630;11.018;2023-11-21T01:23:05;16.90;;;16.43;;
7231;SDS011;3657;49.630;11.018;2023-11-21T01:25:31;16.53;;;16.23;;
7231;SDS011;3657;49.630;11.018;2023-11-21T01:27:59;16.77;;;16.47;;
7231;SDS011;3657;49.630;11.018;2023-11-21T01:30:26;16.40;;;15.97;;
7231;SDS011;3657;49.630;11.018;2023-11-21T01:32:53;16.60;;;16.20;;
7231;SDS011;3657;49.630;11.018;2023-11-21T01:35:19;16.17;;;15.73;;
7231;SDS011;3657;49.630;11.018;2023-11-21T01:37:46;16.50;;;16.10;;
7231;SDS011;3657;49.630;11.018;2023-11-21T01:40:13;16.73;;;16.33;;
7231;SDS011;3657;49.630;11.018;2023-11-21T01:42:40;16.73;;;16.33;;
7231;SDS011;3657;49.630;11.018;2023-11-21T01:45:10;16.23;;;15.93;;
7231;SDS011;3657;49.630;11.018;2023-11-21T01:47:37;17.07;;;16.67;;
7231;SDS011;3657;49.630;11.018;2023-11-21T01:50:06;17.80;;;17.50;;
7231;SDS011;3657;49.630;11.018;2023-11-21T01:52:37;16.37;;;16.07;;
7231;SDS011;3657;49.630;11.018;2023-11-21T01:55:04;17.50;;;17.10;;
7231;SDS011;3657;49.630;11.018;2023-11-21T01:57:34;17.10;;;16.70;;
7231;SDS011;3657;49.630;11.018;2023-11-21T02:00:03;16.20;;;15.90;;
7231;SDS011;3657;49.630;11.018;2023-11-21T02:02:41;17.20;;;16.77;;
7231;SDS011;3657;49.630;11.018;2023-11-21T02:05:08;16.60;;;16.30;;
7231;SDS011;3657;49.630;11.018;2023-11-21T02:07:37;18.03;;;17.50;;
7231;SDS011;3657;49.630;11.018;2023-11-21T02:10:04;17.23;;;16.90;;
7231;SDS011;3657;49.630;11.018;2023-11-21T02:12:32;17.70;;;17.30;;
7231;SDS011;3657;49.630;11.018;2023-11-21T02:14:59;20.07;;;19.43;;
7231;SDS011;3657;49.630;11.018;2023-11-21T02:17:25;17.70;;;17.20;;
7231;SDS011;3657;49.630;11.018;2023-11-21T02:22:23;18.60;;;18.13;;
7231;SDS011;3657;49.630;11.018;2023-11-21T02:24:54;18.80;;;18.40;;
7231;SDS011;3657;49.630;11.018;2023-11-21T02:27:20;18.30;;;17.90;;
7231;SDS011;3657;49.630;11.018;2023-11-21T02:29:48;19.20;;;18.60;;
7231;SDS011;3657;49.630;11.018;2023-11-21T02:32:15;20.40;;;19.90;;
7231;SDS011;3657;49.630;11.018;2023-11-21T02:34:44;18.90;;;18.40;;
7231;SDS011;3657;49.630;11.018;2023-11-21T02:37:10;19.53;;;18.93;;
7231;SDS011;3657;49.630;11.018;2023-11-21T02:39:37;19.23;;;18.73;;
7231;SDS011;3657;49.630;11.018;2023-11-21T02:42:05;17.90;;;17.40;;
7231;SDS011;3657;49.630;11.018;2023-11-21T02:44:32;18.93;;;18.53;;
7231;SDS011;3657;49.630;11.018;2023-11-21T02:46:59;18.60;;;18.20;;
7231;SDS011;3657;49.630;11.018;2023-11-21T02:49:26;19.07;;;18.53;;
7231;SDS011;3657;49.630;11.018;2023-11-21T02:51:53;20.40;;;19.50;;
7231;SDS011;3657;49.630;11.018;2023-11-21T02:54:20;19.40;;;18.80;;
7231;SDS011;3657;49.630;11.018;2023-11-21T02:56:47;18.80;;;18.33;;
7231;SDS011;3657;49.630;11.018;2023-11-21T02:59:16;18.90;;;18.40;;
7231;SDS011;3657;49.630;11.018;2023-11-21T03:01:42;18.00;;;17.60;;
7231;SDS011;3657;49.630;11.018;2023-11-21T03:04:09;17.57;;;17.17;;
7231;SDS011;3657;49.630;11.018;2023-11-21T03:06:36;19.57;;;19.07;;
7231;SDS011;3657;49.630;11.018;2023-11-21T03:09:03;19.83;;;19.43;;
7231;SDS011;3657;49.630;11.018;2023-11-21T03:11:31;20.07;;;19.33;;
7231;SDS011;3657;49.630;11.018;2023-11-21T03:13:58;18.77;;;18.37;;
7231;SDS011;3657;49.630;11.018;2023-11-21T03:16:26;18.20;;;17.80;;
7231;SDS011;3657;49.630;11.018;2023-11-21T03:18:52;18.17;;;17.67;;
7231;SDS011;3657;49.630;11.018;2023-11-21T03:21:19;18.20;;;17.80;;
7231;SDS011;3657;49.630;11.018;2023-11-21T03:23:46;17.90;;;17.50;;
7231;SDS011;3657;49.630;11.018;2023-11-21T03:26:12;17.70;;;17.37;;
7231;SDS011;3657;49.630;11.018;2023-11-21T03:28:39;18.67;;;17.97;;
7231;SDS011;3657;49.630;11.018;2023-11-21T03:31:06;18.60;;;18.17;;
7231;SDS011;3657;49.630;11.018;2023-11-21T03:33:35;17.73;;;17.33;;
7231;SDS011;3657;49.630;11.018;2023-11-21T03:36:02;18.00;;;17.57;;
7231;SDS011;3657;49.630;11.018;2023-11-21T03:38:29;18.03;;;17.63;;
7231;SDS011;3657;49.630;11.018;2023-11-21T03:40:55;18.30;;;17.70;;
7231;SDS011;3657;49.630;11.018;2023-11-21T03:43:22;18.90;;;18.30;;
7231;SDS011;3657;49.630;11.018;2023-11-21T03:45:49;17.10;;;16.80;;
7231;SDS011;3657;49.630;11.018;2023-11-21T03:48:16;17.07;;;16.60;;
7231;SDS011;3657;49.630;11.018;2023-11-21T03:50:44;18.17;;;17.80;;
7231;SDS011;3657;49.630;11.018;2023-11-21T03:53:12;18.00;;;17.43;;
7231;SDS011;3657;49.630;11.018;2023-11-21T03:55:39;18.63;;;17.90;;
7231;SDS011;3657;49.630;11.018;2023-11-21T03:58:05;20.07;;;19.33;;
7231;SDS011;3657;49.630;11.018;2023-11-21T04:00:32;19.17;;;18.77;;
7231;SDS011;3657;49.630;11.018;2023-11-21T04:02:59;18.80;;;18.20;;
7231;SDS011;3657;49.630;11.018;2023-11-21T04:05:25;17.37;;;16.97;;
7231;SDS011;3657;49.630;11.018;2023-11-21T04:07:53;18.73;;;18.23;;
7231;SDS011;3657;49.630;11.018;2023-11-21T04:10:20;17.63;;;17.33;;
7231;SDS011;3657;49.630;11.018;2023-11-21T04:12:47;17.53;;;17.23;;
7231;SDS011;3657;49.630;11.018;2023-11-21T04:15:13;17.53;;;17.23;;
7231;SDS011;3657;49.630;11.018;2023-11-21T04:17:40;16.53;;;16.23;;
7231;SDS011;3657;49.630;11.018;2023-11-21T04:20:07;17.73;;;17.23;;
7231;SDS011;3657;49.630;11.018;2023-11-21T04:22:36;18.00;;;17.60;;
7231;SDS011;3657;49.630;11.018;2023-11-21T04:25:07;17.73;;;17.43;;
7231;SDS011;3657;49.630;11.018;2023-11-21T04:27:34;17.57;;;17.20;;
7231;SDS011;3657;49.630;11.018;2023-11-21T04:30:01;16.90;;;16.60;;
7231;SDS011;3657;49.630;11.018;2023-11-21T04:32:27;16.60;;;16.30;;
7231;SDS011;3657;49.630;11.018;2023-11-21T04:34:54;17.50;;;17.20;;
7231;SDS011;3657;49.630;11.018;2023-11-21T04:37:21;17.77;;;17.37;;
7231;SDS011;3657;49.630;11.018;2023-11-21T04:39:47;20.97;;;20.07;;
7231;SDS011;3657;49.630;11.018;2023-11-21T04:42:15;20.63;;;20.03;;
7231;SDS011;3657;49.630;11.018;2023-11-21T04:44:42;19.13;;;18.63;;
7231;SDS011;3657;49.630;11.018;2023-11-21T04:47:09;17.63;;;17.33;;
7231;SDS011;3657;49.630;11.018;2023-11-21T04:49:36;18.70;;;18.30;;
7231;SDS011;3657;49.630;11.018;2023-11-21T04:52:03;18.23;;;17.83;;
7231;SDS011;3657;49.630;11.018;2023-11-21T04:54:30;18.47;;;18.03;;
7231;SDS011;3657;49.630;11.018;2023-11-21T04:56:57;17.93;;;17.63;;
7231;SDS011;3657;49.630;11.018;2023-11-21T04:59:25;17.70;;;17.40;;
7231;SDS011;3657;49.630;11.018;2023-11-21T05:01:52;17.93;;;17.53;;
7231;SDS011;3657;49.630;11.018;2023-11-21T05:04:19;22.33;;;21.40;;
7231;SDS011;3657;49.630;11.018;2023-11-21T05:06:47;22.50;;;21.50;;
7231;SDS011;3657;49.630;11.018;2023-11-21T05:09:14;34.13;;;31.83;;
7231;SDS011;3657;49.630;11.018;2023-11-21T05:11:41;19.80;;;19.30;;
7231;SDS011;3657;49.630;11.018;2023-11-21T05:14:07;20.23;;;19.73;;
7231;SDS011;3657;49.630;11.018;2023-11-21T05:16:36;22.67;;;21.80;;
7231;SDS011;3657;49.630;11.018;2023-11-21T05:19:03;24.67;;;23.57;;
7231;SDS011;3657;49.630;11.018;2023-11-21T05:21:30;19.53;;;19.10;;
7231;SDS011;3657;49.630;11.018;2023-11-21T05:23:57;20.00;;;19.60;;
7231;SDS011;3657;49.630;11.018;2023-11-21T05:26:24;20.07;;;19.30;;
7231;SDS011;3657;49.630;11.018;2023-11-21T05:28:50;19.73;;;19.23;;
7231;SDS011;3657;49.630;11.018;2023-11-21T05:31:17;21.07;;;20.57;;
7231;SDS011;3657;49.630;11.018;2023-11-21T05:33:45;21.23;;;20.73;;
7231;SDS011;3657;49.630;11.018;2023-11-21T05:36:13;21.60;;;21.10;;
7231;SDS011;3657;49.630;11.018;2023-11-21T05:38:39;20.73;;;20.23;;
7231;SDS011;3657;49.630;11.018;2023-11-21T05:41:06;20.50;;;20.00;;
7231;SDS011;3657;49.630;11.018;2023-11-21T05:43:36;20.70;;;20.23;;
7231;SDS011;3657;49.630;11.018;2023-11-21T05:46:02;21.37;;;20.87;;
7231;SDS011;3657;49.630;11.018;2023-11-21T05:48:29;20.83;;;20.33;;
7231;SDS011;3657;49.630;11.018;2023-11-21T05:50:57;20.07;;;19.67;;
7231;SDS011;3657;49.630;11.018;2023-11-21T05:53:26;20.80;;;20.37;;
7231;SDS011;3657;49.630;11.018;2023-11-21T05:55:53;20.77;;;20.33;;
7231;SDS011;3657;49.630;11.018;2023-11-21T05:58:20;20.97;;;20.47;;
7231;SDS011;3657;49.630;11.018;2023-11-21T06:00:45;20.50;;;20.00;;
7231;SDS011;3657;49.630;11.018;2023-11-21T06:03:12;21.50;;;20.83;;
7231;SDS011;3657;49.630;11.018;2023-11-21T06:05:39;20.87;;;20.37;;
7231;SDS011;3657;49.630;11.018;2023-11-21T06:08:07;21.17;;;20.67;;
7231;SDS011;3657;49.630;11.018;2023-11-21T06:10:34;20.73;;;20.23;;
7231;SDS011;3657;49.630;11.018;2023-11-21T06:13:00;20.43;;;20.03;;
7231;SDS011;3657;49.630;11.018;2023-11-21T06:15:28;19.10;;;18.70;;
7231;SDS011;3657;49.630;11.018;2023-11-21T06:17:55;20.10;;;19.70;;
7231;SDS011;3657;49.630;11.018;2023-11-21T06:20:22;19.57;;;19.17;;
7231;SDS011;3657;49.630;11.018;2023-11-21T06:22:51;21.47;;;20.83;;
7231;SDS011;3657;49.630;11.018;2023-11-21T06:25:19;20.17;;;19.60;;
7231;SDS011;3657;49.630;11.018;2023-11-21T06:27:46;19.63;;;19.10;;
7231;SDS011;3657;49.630;11.018;2023-11-21T06:30:13;24.43;;;23.20;;
7231;SDS011;3657;49.630;11.018;2023-11-21T06:32:40;23.80;;;22.90;;
7231;SDS011;3657;49.630;11.018;2023-11-21T06:35:10;21.10;;;20.60;;
7231;SDS011;3657;49.630;11.018;2023-11-21T06:37:38;21.60;;;21.00;;
7231;SDS011;3657;49.630;11.018;2023-11-21T06:40:05;31.17;;;28.70;;
7231;SDS011;3657;49.630;11.018;2023-11-21T06:42:35;33.57;;;31.60;;
7231;SDS011;3657;49.630;11.018;2023-11-21T06:45:03;20.70;;;20.07;;
7231;SDS011;3657;49.630;11.018;2023-11-21T06:47:30;20.00;;;19.50;;
7231;SDS011;3657;49.630;11.018;2023-11-21T06:49:58;27.83;;;26.53;;
7231;SDS011;3657;49.630;11.018;2023-11-21T06:52:25;22.27;;;21.50;;
7231;SDS011;3657;49.630;11.018;2023-11-21T06:54:52;22.40;;;21.70;;
7231;SDS011;3657;49.630;11.018;2023-11-21T06:57:18;19.93;;;19.50;;
7231;SDS011;3657;49.630;11.018;2023-11-21T06:59:47;23.27;;;22.27;;
7231;SDS011;3657;49.630;11.018;2023-11-21T07:02:13;26.13;;;24.67;;
7231;SDS011;3657;49.630;11.018;2023-11-21T07:04:43;27.57;;;26.27;;
7231;SDS011;3657;49.630;11.018;2023-11-21T07:07:10;24.53;;;23.63;;
7231;SDS011;3657;49.630;11.018;2023-11-21T07:09:36;24.83;;;23.83;;
7231;SDS011;3657;49.630;11.018;2023-11-21T07:12:03;19.00;;;18.60;;
7231;SDS011;3657;49.630;11.018;2023-11-21T07:14:32;20.63;;;20.13;;
7231;SDS011;3657;49.630;11.018;2023-11-21T07:17:00;22.87;;;22.17;;
7231;SDS011;3657;49.630;11.018;2023-11-21T07:19:27;20.30;;;19.90;;
7231;SDS011;3657;49.630;11.018;2023-11-21T07:21:54;20.60;;;20.10;;
7231;SDS011;3657;49.630;11.018;2023-11-21T07:24:21;19.90;;;19.50;;
7231;SDS011;3657;49.630;11.018;2023-11-21T07:26:48;25.67;;;24.47;;
7231;SDS011;3657;49.630;11.018;2023-11-21T07:29:15;21.00;;;20.50;;
7231;SDS011;3657;49.630;11.018;2023-11-21T07:31:42;24.83;;;23.87;;
7231;SDS011;3657;49.630;11.018;2023-11-21T07:34:10;27.03;;;25.93;;
7231;SDS011;3657;49.630;11.018;2023-11-21T07:36:37;22.70;;;21.90;;
7231;SDS011;3657;49.630;11.018;2023-11-21T07:39:03;25.33;;;24.03;;
7231;SDS011;3657;49.630;11.018;2023-11-21T07:41:31;24.60;;;23.67;;
7231;SDS011;3657;49.630;11.018;2023-11-21T07:43:58;24.00;;;22.93;;
7231;SDS011;3657;49.630;11.018;2023-11-21T07:46:25;24.40;;;23.40;;
7231;SDS011;3657;49.630;11.018;2023-11-21T07:48:52;25.93;;;24.83;;
7231;SDS011;3657;49.630;11.018;2023-11-21T07:51:21;24.73;;;23.73;;
7231;SDS011;3657;49.630;11.018;2023-11-21T07:53:48;26.03;;;24.93;;
7231;SDS011;3657;49.630;11.018;2023-11-21T07:56:14;20.80;;;20.30;;
7231;SDS011;3657;49.630;11.018;2023-11-21T07:58:41;20.03;;;19.60;;
7231;SDS011;3657;49.630;11.018;2023-11-21T08:01:08;21.80;;;21.20;;
7231;SDS011;3657;49.630;11.018;2023-11-21T08:03:34;24.77;;;23.60;;
7231;SDS011;3657;49.630;11.018;2023-11-21T08:06:01;21.30;;;20.80;;
7231;SDS011;3657;49.630;11.018;2023-11-21T08:08:32;27.97;;;26.43;;
7231;SDS011;3657;49.630;11.018;2023-11-21T08:10:58;25.57;;;24.57;;
7231;SDS011;3657;49.630;11.018;2023-11-21T08:13:27;25.23;;;24.13;;
7231;SDS011;3657;49.630;11.018;2023-11-21T08:15:55;21.97;;;21.37;;
7231;SDS011;3657;49.630;11.018;2023-11-21T08:18:26;21.37;;;20.87;;
7231;SDS011;3657;49.630;11.018;2023-11-21T08:20:54;21.80;;;21.30;;
7231;SDS011;3657;49.630;11.018;2023-11-21T08:23:21;21.73;;;21.23;;
7231;SDS011;3657;49.630;11.018;2023-11-21T08:25:51;21.87;;;21.37;;
7231;SDS011;3657;49.630;11.018;2023-11-21T08:28:19;23.33;;;22.63;;
7231;SDS011;3657;49.630;11.018;2023-11-21T08:30:50;23.27;;;22.57;;
7231;SDS011;3657;49.630;11.018;2023-11-21T08:33:17;25.37;;;24.40;;
7231;SDS011;3657;49.630;11.018;2023-11-21T08:35:44;25.77;;;24.77;;
7231;SDS011;3657;49.630;11.018;2023-11-21T08:38:11;24.77;;;23.77;;
7231;SDS011;3657;49.630;11.018;2023-11-21T08:40:38;24.83;;;23.93;;
7231;SDS011;3657;49.630;11.018;2023-11-21T08:43:06;23.77;;;23.07;;
7231;SDS011;3657;49.630;11.018;2023-11-21T08:45:33;31.90;;;30.20;;
7231;SDS011;3657;49.630;11.018;2023-11-21T08:48:00;25.93;;;24.73;;
7231;SDS011;3657;49.630;11.018;2023-11-21T08:50:27;31.93;;;29.67;;
7231;SDS011;3657;49.630;11.018;2023-11-21T08:52:53;23.37;;;22.57;;
7231;SDS011;3657;49.630;11.018;2023-11-21T08:55:20;28.53;;;26.97;;
7231;SDS011;3657;49.630;11.018;2023-11-21T08:57:47;33.70;;;31.47;;
7231;SDS011;3657;49.630;11.018;2023-11-21T09:00:16;28.40;;;27.10;;
7231;SDS011;3657;49.630;11.018;2023-11-21T09:02:43;25.70;;;24.63;;
7231;SDS011;3657;49.630;11.018;2023-11-21T09:05:11;26.03;;;24.80;;
7231;SDS011;3657;49.630;11.018;2023-11-21T09:07:40;22.33;;;21.70;;
7231;SDS011;3657;49.630;11.018;2023-11-21T09:10:07;24.60;;;23.67;;
7231;SDS011;3657;49.630;11.018;2023-11-21T09:12:35;22.30;;;21.60;;
7231;SDS011;3657;49.630;11.018;2023-11-21T09:15:03;29.73;;;28.00;;
7231;SDS011;3657;49.630;11.018;2023-11-21T09:17:32;24.10;;;23.13;;
7231;SDS011;3657;49.630;11.018;2023-11-21T09:20:00;23.60;;;22.70;;
7231;SDS011;3657;49.630;11.018;2023-11-21T09:22:28;22.00;;;21.40;;
7231;SDS011;3657;49.630;11.018;2023-11-21T09:24:56;23.17;;;22.47;;
7231;SDS011;3657;49.630;11.018;2023-11-21T09:27:23;22.57;;;21.87;;
7231;SDS011;3657;49.630;11.018;2023-11-21T09:29:51;25.97;;;24.87;;
7231;SDS011;3657;49.630;11.018;2023-11-21T09:32:18;25.43;;;24.53;;
7231;SDS011;3657;49.630;11.018;2023-11-21T09:34:47;24.17;;;23.47;;
7231;SDS011;3657;49.630;11.018;2023-11-21T09:37:14;23.80;;;23.00;;
7231;SDS011;3657;49.630;11.018;2023-11-21T09:39:41;24.07;;;23.17;;
7231;SDS011;3657;49.630;11.018;2023-11-21T09:42:08;24.33;;;23.53;;
7231;SDS011;3657;49.630;11.018;2023-11-21T09:44:40;23.50;;;22.80;;
7231;SDS011;3657;49.630;11.018;2023-11-21T09:47:13;29.67;;;27.97;;
7231;SDS011;3657;49.630;11.018;2023-11-21T09:49:41;24.87;;;23.93;;
7231;SDS011;3657;49.630;11.018;2023-11-21T09:52:13;23.83;;;22.93;;
7231;SDS011;3657;49.630;11.018;2023-11-21T09:54:50;23.33;;;22.37;;
7231;SDS011;3657;49.630;11.018;2023-11-21T09:57:18;26.23;;;25.13;;
7231;SDS011;3657;49.630;11.018;2023-11-21T09:59:46;25.27;;;24.37;;
7231;SDS011;3657;49.630;11.018;2023-11-21T10:02:17;22.13;;;21.53;;
7231;SDS011;3657;49.630;11.018;2023-11-21T10:04:46;22.77;;;21.97;;
7231;SDS011;3657;49.630;11.018;2023-11-21T10:07:14;24.80;;;23.80;;
7231;SDS011;3657;49.630;11.018;2023-11-21T10:09:43;26.77;;;25.57;;
7231;SDS011;3657;49.630;11.018;2023-11-21T10:12:10;24.93;;;23.87;;
7231;SDS011;3657;49.630;11.018;2023-11-21T10:14:41;20.60;;;20.03;;
7231;SDS011;3657;49.630;11.018;2023-11-21T10:17:09;21.83;;;21.13;;
7231;SDS011;3657;49.630;11.018;2023-11-21T10:19:38;27.37;;;26.23;;
7231;SDS011;3657;49.630;11.018;2023-11-21T10:22:05;25.53;;;24.43;;
7231;SDS011;3657;49.630;11.018;2023-11-21T10:24:35;22.30;;;21.70;;
7231;SDS011;3657;49.630;11.018;2023-11-21T10:27:03;21.47;;;20.77;;
7231;SDS011;3657;49.630;11.018;2023-11-21T10:29:30;23.77;;;23.07;;
7231;SDS011;3657;49.630;11.018;2023-11-21T10:32:00;24.63;;;23.73;;
7231;SDS011;3657;49.630;11.018;2023-11-21T10:34:28;25.50;;;24.27;;
7231;SDS011;3657;49.630;11.018;2023-11-21T10:36:55;29.50;;;28.07;;
7231;SDS011;3657;49.630;11.018;2023-11-21T10:39:23;27.87;;;26.67;;
7231;SDS011;3657;49.630;11.018;2023-11-21T10:41:54;26.63;;;25.60;;
7231;SDS011;3657;49.630;11.018;2023-11-21T10:44:21;26.67;;;25.50;;
7231;SDS011;3657;49.630;11.018;2023-11-21T10:46:49;28.17;;;26.80;;
7231;SDS011;3657;49.630;11.018;2023-11-21T10:49:17;24.67;;;23.67;;
7231;SDS011;3657;49.630;11.018;2023-11-21T10:51:44;23.10;;;22.20;;
7231;SDS011;3657;49.630;11.018;2023-11-21T10:54:15;24.07;;;23.17;;
7231;SDS011;3657;49.630;11.018;2023-11-21T10:56:43;28.07;;;26.80;;
7231;SDS011;3657;49.630;11.018;2023-11-21T10:59:12;29.60;;;28.17;;
7231;SDS011;3657;49.630;11.018;2023-11-21T11:01:41;24.60;;;23.70;;
7231;SDS011;3657;49.630;11.018;2023-11-21T11:04:11;24.53;;;23.60;;
7231;SDS011;3657;49.630;11.018;2023-11-21T11:06:41;24.73;;;23.93;;
7231;SDS011;3657;49.630;11.018;2023-11-21T11:09:09;26.27;;;25.00;;
7231;SDS011;3657;49.630;11.018;2023-11-21T11:11:39;25.20;;;24.10;;
7231;SDS011;3657;49.630;11.018;2023-11-21T11:14:06;24.43;;;23.37;;
7231;SDS011;3657;49.630;11.018;2023-11-21T11:16:35;25.53;;;24.17;;
7231;SDS011;3657;49.630;11.018;2023-11-21T11:19:04;27.43;;;26.13;;
7231;SDS011;3657;49.630;11.018;2023-11-21T11:21:33;28.27;;;26.90;;
7231;SDS011;3657;49.630;11.018;2023-11-21T11:24:13;28.60;;;27.17;;
7231;SDS011;3657;49.630;11.018;2023-11-21T11:27:01;27.47;;;25.90;;
7231;SDS011;3657;49.630;11.018;2023-11-21T11:29:39;37.73;;;35.53;;
7231;SDS011;3657;49.630;11.018;2023-11-21T11:32:16;28.07;;;26.87;;
7231;SDS011;3657;49.630;11.018;2023-11-21T11:34:54;28.20;;;26.70;;
7231;SDS011;3657;49.630;11.018;2023-11-21T11:37:27;27.80;;;26.40;;
7231;SDS011;3657;49.630;11.018;2023-11-21T11:39:54;29.03;;;27.40;;
7231;SDS011;3657;49.630;11.018;2023-11-21T11:42:23;27.60;;;26.23;;
7231;SDS011;3657;49.630;11.018;2023-11-21T11:44:50;26.63;;;25.40;;
7231;SDS011;3657;49.630;11.018;2023-11-21T11:47:21;25.60;;;24.50;;
7231;SDS011;3657;49.630;11.018;2023-11-21T11:52:42;25.13;;;24.13;;
7231;SDS011;3657;49.630;11.018;2023-11-21T11:55:10;26.37;;;25.37;;
7231;SDS011;3657;49.630;11.018;2023-11-21T11:57:37;25.47;;;24.37;;
7231;SDS011;3657;49.630;11.018;2023-11-21T12:00:08;25.33;;;24.33;;
7231;SDS011;3657;49.630;11.018;2023-11-21T12:02:45;25.83;;;24.80;;
7231;SDS011;3657;49.630;11.018;2023-11-21T12:05:13;24.87;;;23.93;;
7231;SDS011;3657;49.630;11.018;2023-11-21T12:07:45;24.30;;;23.40;;
7231;SDS011;3657;49.630;11.018;2023-11-21T12:10:13;23.80;;;23.00;;
7231;SDS011;3657;49.630;11.018;2023-11-21T12:12:43;25.13;;;24.33;;
7231;SDS011;3657;49.630;11.018;2023-11-21T12:15:11;23.03;;;22.23;;
7231;SDS011;3657;49.630;11.018;2023-11-21T12:17:38;22.43;;;21.60;;
7231;SDS011;3657;49.630;11.018;2023-11-21T12:20:07;22.73;;;21.93;;
7231;SDS011;3657;49.630;11.018;2023-11-21T12:22:40;22.93;;;22.03;;
7231;SDS011;3657;49.630;11.018;2023-11-21T12:25:10;23.50;;;22.70;;
7231;SDS011;3657;49.630;11.018;2023-11-21T12:27:41;23.47;;;22.57;;
7231;SDS011;3657;49.630;11.018;2023-11-21T12:30:09;23.10;;;22.40;;
7231;SDS011;3657;49.630;11.018;2023-11-21T12:32:38;22.27;;;21.60;;
7231;SDS011;3657;49.630;11.018;2023-11-21T12:35:08;21.07;;;20.37;;
7231;SDS011;3657;49.630;11.018;2023-11-21T12:37:35;22.17;;;21.40;;
7231;SDS011;3657;49.630;11.018;2023-11-21T12:40:03;23.50;;;22.87;;
7231;SDS011;3657;49.630;11.018;2023-11-21T12:42:32;22.43;;;21.73;;
7231;SDS011;3657;49.630;11.018;2023-11-21T12:45:09;22.07;;;21.33;;
7231;SDS011;3657;49.630;11.018;2023-11-21T12:47:45;21.00;;;20.50;;
7231;SDS011;3657;49.630;11.018;2023-11-21T12:50:14;22.07;;;21.50;;
7231;SDS011;3657;49.630;11.018;2023-11-21T12:52:41;22.10;;;21.50;;
7231;SDS011;3657;49.630;11.018;2023-11-21T12:55:13;20.00;;;19.33;;
7231;SDS011;3657;49.630;11.018;2023-11-21T12:57:41;21.47;;;20.80;;
7231;SDS011;3657;49.630;11.018;2023-11-21T13:00:12;20.43;;;19.83;;
7231;SDS011;3657;49.630;11.018;2023-11-21T13:02:51;22.30;;;21.70;;
7231;SDS011;3657;49.630;11.018;2023-11-21T13:05:26;22.40;;;21.50;;
7231;SDS011;3657;49.630;11.018;2023-11-21T13:07:53;22.97;;;22.03;;
7231;SDS011;3657;49.630;11.018;2023-11-21T13:10:23;22.63;;;21.73;;
7231;SDS011;3657;49.630;11.018;2023-11-21T13:12:54;22.33;;;21.43;;
7231;SDS011;3657;49.630;11.018;2023-11-21T13:15:23;22.53;;;21.57;;
7231;SDS011;3657;49.630;11.018;2023-11-21T13:17:50;19.97;;;19.47;;
7231;SDS011;3657;49.630;11.018;2023-11-21T13:20:18;21.80;;;21.17;;
7231;SDS011;3657;49.630;11.018;2023-11-21T13:22:47;21.67;;;20.97;;
7231;SDS011;3657;49.630;11.018;2023-11-21T13:25:15;20.93;;;20.33;;
7231;SDS011;3657;49.630;11.018;2023-11-21T13:27:44;20.87;;;20.37;;
7231;SDS011;3657;49.630;11.018;2023-11-21T13:30:12;21.43;;;20.83;;
7231;SDS011;3657;49.630;11.018;2023-11-21T13:32:41;20.00;;;19.20;;
7231;SDS011;3657;49.630;11.018;2023-11-21T13:35:08;21.87;;;21.10;;
7231;SDS011;3657;49.630;11.018;2023-11-21T13:37:45;20.77;;;20.17;;
7231;SDS011;3657;49.630;11.018;2023-11-21T13:40:19;21.50;;;20.77;;
7231;SDS011;3657;49.630;11.018;2023-11-21T13:42:50;21.27;;;20.63;;
7231;SDS011;3657;49.630;11.018;2023-11-21T13:45:19;21.90;;;21.17;;
7231;SDS011;3657;49.630;11.018;2023-11-21T13:47:47;19.73;;;19.23;;
7231;SDS011;3657;49.630;11.018;2023-11-21T13:50:16;20.83;;;20.30;;
7231;SDS011;3657;49.630;11.018;2023-11-21T13:52:47;21.03;;;20.43;;
7231;SDS011;3657;49.630;11.018;2023-11-21T13:55:18;21.73;;;21.20;;
7231;SDS011;3657;49.630;11.018;2023-11-21T13:57:44;19.23;;;18.73;;
7231;SDS011;3657;49.630;11.018;2023-11-21T14:00:14;20.60;;;19.97;;
7231;SDS011;3657;49.630;11.018;2023-11-21T14:03:04;19.83;;;19.33;;
7231;SDS011;3657;49.630;11.018;2023-11-21T14:05:41;20.60;;;20.00;;
7231;SDS011;3657;49.630;11.018;2023-11-21T14:08:09;20.70;;;20.00;;
7231;SDS011;3657;49.630;11.018;2023-11-21T14:10:41;20.57;;;20.17;;
7231;SDS011;3657;49.630;11.018;2023-11-21T14:13:09;21.17;;;20.40;;
7231;SDS011;3657;49.630;11.018;2023-11-21T14:15:37;20.03;;;19.57;;
7231;SDS011;3657;49.630;11.018;2023-11-21T14:18:08;20.37;;;19.60;;
7231;SDS011;3657;49.630;11.018;2023-11-21T14:20:36;19.50;;;19.00;;
7231;SDS011;3657;49.630;11.018;2023-11-21T14:23:03;19.37;;;18.77;;
7231;SDS011;3657;49.630;11.018;2023-11-21T14:25:32;20.40;;;19.90;;
7231;SDS011;3657;49.630;11.018;2023-11-21T14:28:01;20.87;;;20.27;;
7231;SDS011;3657;49.630;11.018;2023-11-21T14:30:28;19.43;;;18.93;;
7231;SDS011;3657;49.630;11.018;2023-11-21T14:32:57;19.77;;;19.37;;
7231;SDS011;3657;49.630;11.018;2023-11-21T14:35:23;19.80;;;19.10;;
7231;SDS011;3657;49.630;11.018;2023-11-21T14:37:51;18.87;;;18.47;;
7231;SDS011;3657;49.630;11.018;2023-11-21T14:40:18;20.23;;;19.43;;
7231;SDS011;3657;49.630;11.018;2023-11-21T14:42:50;19.70;;;19.20;;
7231;SDS011;3657;49.630;11.018;2023-11-21T14:45:19;20.90;;;20.40;;